createdAt,value
2022-08-28T00:00:15.316Z,96155.63
2022-08-28T00:02:46.598Z,96148.34
2022-08-28T00:05:20.270Z,96142.41
2022-08-28T00:07:48.886Z,96146.28
2022-08-28T00:10:19.683Z,96142.78
2022-08-28T00:12:52.974Z,96149.91
2022-08-28T00:15:25.554Z,96147.00
2022-08-28T00:17:54.279Z,96144.31
2022-08-28T00:20:25.402Z,96141.88
2022-08-28T00:22:55.486Z,96133.66
2022-08-28T00:25:26.294Z,96144.41
2022-08-28T00:27:55.525Z,96141.13
2022-08-28T00:30:27.831Z,96139.13
2022-08-28T00:32:58.355Z,96141.09
2022-08-28T00:35:29.246Z,96131.69
2022-08-28T00:37:58.217Z,96138.59
2022-08-28T00:40:32.857Z,96136.25
2022-08-28T00:43:02.783Z,96131.53
2022-08-28T00:45:37.267Z,96137.38
2022-08-28T00:48:07.434Z,96129.19
2022-08-28T00:50:51.958Z,96127.31
2022-08-28T00:53:23.429Z,96128.25
2022-08-28T00:55:53.820Z,96131.69
2022-08-28T00:58:22.257Z,96133.22
2022-08-28T01:00:50.831Z,96133.47
2022-08-28T01:03:19.262Z,96129.28
2022-08-28T01:05:55.168Z,96137.13
2022-08-28T01:08:23.590Z,96132.94
2022-08-28T01:10:56.231Z,96131.13
2022-08-28T01:13:26.824Z,96132.50
2022-08-28T01:15:58.223Z,96135.66
2022-08-28T01:18:30.392Z,96135.34
2022-08-28T01:21:06.655Z,96132.66
2022-08-28T01:23:52.242Z,96141.44
2022-08-28T01:26:21.583Z,96130.25
2022-08-28T01:28:50.713Z,96138.44
2022-08-28T01:31:19.828Z,96135.03
2022-08-28T01:33:48.947Z,96141.22
2022-08-28T01:36:18.162Z,96136.22
2022-08-28T01:38:51.552Z,96132.59
2022-08-28T01:41:20.861Z,96140.41
2022-08-28T01:43:49.255Z,96141.81
2022-08-28T01:46:18.920Z,96136.78
2022-08-28T01:48:47.503Z,96141.22
2022-08-28T01:51:16.236Z,96143.00
2022-08-28T01:53:45.324Z,96143.09
2022-08-28T01:56:18.305Z,96142.06
2022-08-28T01:58:48.302Z,96137.50
2022-08-28T02:01:19.465Z,96140.16
2022-08-28T02:03:48.455Z,96138.41
2022-08-28T02:06:18.074Z,96133.63
2022-08-28T02:08:46.738Z,96144.25
2022-08-28T02:11:17.219Z,96133.63
2022-08-28T02:13:45.747Z,96137.94
2022-08-28T02:16:19.323Z,96134.34
2022-08-28T02:18:47.985Z,96135.16
2022-08-28T02:21:17.288Z,96136.34
2022-08-28T02:23:46.288Z,96129.66
2022-08-28T02:26:17.299Z,96134.34
2022-08-28T02:28:46.163Z,96138.06
2022-08-28T02:31:14.672Z,96135.03
2022-08-28T02:33:45.827Z,96134.91
2022-08-28T02:36:15.975Z,96134.34
2022-08-28T02:38:45.294Z,96138.31
2022-08-28T02:41:13.892Z,96134.00
2022-08-28T02:43:43.782Z,96128.97
2022-08-28T02:46:12.544Z,96127.69
2022-08-28T02:48:41.757Z,96128.50
2022-08-28T02:51:13.346Z,96128.06
2022-08-28T02:53:42.718Z,96129.44
2022-08-28T02:56:11.978Z,96131.06
2022-08-28T02:58:41.302Z,96129.78
2022-08-28T03:01:13.582Z,96123.84
2022-08-28T03:03:43.330Z,96126.16
2022-08-28T03:06:13.588Z,96126.16
2022-08-28T03:08:43.175Z,96121.59
2022-08-28T03:11:12.892Z,96120.56
2022-08-28T03:13:41.971Z,96127.22
2022-08-28T03:16:11.864Z,96123.94
2022-08-28T03:18:41.532Z,96131.41
2022-08-28T03:21:10.568Z,96123.34
2022-08-28T03:23:39.532Z,96128.16
2022-08-28T03:26:10.568Z,96121.25
2022-08-28T03:28:42.778Z,96123.94
2022-08-28T03:31:15.777Z,96126.03
2022-08-28T03:33:44.638Z,96129.31
2022-08-28T03:36:15.556Z,96126.41
2022-08-28T03:38:44.156Z,96130.25
2022-08-28T03:41:13.382Z,96127.69
2022-08-28T03:43:42.442Z,96131.16
2022-08-28T03:46:17.465Z,96134.22
2022-08-28T03:48:46.496Z,96130.94
2022-08-28T03:51:16.831Z,96128.81
2022-08-28T03:53:47.024Z,96128.91
2022-08-28T03:56:18.903Z,96128.69
2022-08-28T03:58:47.375Z,96130.06
2022-08-28T04:01:17.245Z,96132.53
2022-08-28T04:03:45.872Z,96139.78
2022-08-28T04:06:14.983Z,96139.41
2022-08-28T04:08:43.637Z,96138.34
2022-08-28T04:11:12.331Z,96144.41
2022-08-28T04:13:41.739Z,96143.03
2022-08-28T04:16:12.715Z,96138.22
2022-08-28T04:18:44.508Z,96144.38
2022-08-28T04:21:15.001Z,96141.38
2022-08-28T04:23:45.004Z,96136.00
2022-08-28T04:26:15.800Z,96143.59
2022-08-28T04:28:45.084Z,96145.34
2022-08-28T04:31:14.968Z,96145.34
2022-08-28T04:33:45.649Z,96147.09
2022-08-28T04:36:16.408Z,96148.59
2022-08-28T04:38:45.066Z,96146.63
2022-08-28T04:41:16.831Z,96146.38
2022-08-28T04:43:45.827Z,96154.13
2022-08-28T04:46:16.127Z,96151.44
2022-08-28T04:48:46.348Z,96148.44
2022-08-28T04:51:15.358Z,96155.34
2022-08-28T04:53:44.818Z,96154.06
2022-08-28T04:56:15.223Z,96156.50
2022-08-28T04:58:45.519Z,96155.34
2022-08-28T05:01:18.691Z,96155.13
2022-08-28T05:03:49.847Z,96166.72
2022-08-28T05:06:18.571Z,96165.91
2022-08-28T05:08:47.032Z,96168.44
2022-08-28T05:11:32.771Z,96166.59
2022-08-28T05:14:05.469Z,96157.25
2022-08-28T05:16:35.442Z,96167.06
2022-08-28T05:19:05.296Z,96166.53
2022-08-28T05:21:33.731Z,96179.38
2022-08-28T05:24:02.252Z,96171.81
2022-08-28T05:26:30.818Z,96181.75
2022-08-28T05:29:00.049Z,96174.66
2022-08-28T05:31:30.007Z,96168.56
2022-08-28T05:33:59.707Z,96173.22
2022-08-28T05:36:33.141Z,96178.94
2022-08-28T05:39:03.829Z,96179.75
2022-08-28T05:41:32.972Z,96183.28
2022-08-28T05:44:03.141Z,96184.69
2022-08-28T05:46:32.184Z,96187.94
2022-08-28T05:49:00.837Z,96198.09
2022-08-28T05:51:31.635Z,96200.66
2022-08-28T05:54:00.058Z,96196.81
2022-08-28T05:56:30.884Z,96199.75
2022-08-28T05:59:01.554Z,96202.09
2022-08-28T06:01:32.507Z,96202.22
2022-08-28T06:04:04.178Z,96204.19
2022-08-28T06:06:35.609Z,96208.59
2022-08-28T06:09:07.688Z,96203.22
2022-08-28T06:11:38.739Z,96203.22
2022-08-28T06:14:17.397Z,96204.53
2022-08-28T06:16:48.772Z,96197.50
2022-08-28T06:19:18.060Z,96201.84
2022-08-28T06:21:48.779Z,96200.31
2022-08-28T06:24:17.196Z,96214.44
2022-08-28T06:26:46.144Z,96209.31
2022-08-28T06:29:18.454Z,96206.25
2022-08-28T06:31:54.488Z,96201.59
2022-08-28T06:34:22.997Z,96215.28
2022-08-28T06:36:54.335Z,96205.78
2022-08-28T06:39:24.020Z,96205.69
2022-08-28T06:41:53.745Z,96205.31
2022-08-28T06:44:23.416Z,96201.00
2022-08-28T06:46:54.802Z,96207.53
2022-08-28T06:49:23.786Z,96208.97
2022-08-28T06:51:53.743Z,96212.00
2022-08-28T06:54:23.694Z,96213.97
2022-08-28T06:56:52.835Z,96205.31
2022-08-28T06:59:21.398Z,96212.00
2022-08-28T07:01:49.941Z,96210.91
2022-08-28T07:04:18.504Z,96213.56
2022-08-28T07:06:53.808Z,96224.56
2022-08-28T07:09:25.247Z,96225.03
2022-08-28T07:11:54.466Z,96221.16
2022-08-28T07:14:23.332Z,96229.69
2022-08-28T07:16:54.515Z,96224.88
2022-08-28T07:19:22.928Z,96232.94
2022-08-28T07:21:51.382Z,96232.25
2022-08-28T07:24:20.215Z,96239.38
2022-08-28T07:26:50.159Z,96235.47
2022-08-28T07:29:19.965Z,96234.28
2022-08-28T07:31:50.983Z,96239.56
2022-08-28T07:34:21.282Z,96233.94
2022-08-28T07:36:52.344Z,96238.59
2022-08-28T07:39:20.863Z,96241.13
2022-08-28T07:41:50.872Z,96234.22
2022-08-28T07:44:37.381Z,96239.38
2022-08-28T07:47:08.647Z,96242.84
2022-08-28T07:49:37.340Z,96242.28
2022-08-28T07:52:07.224Z,96236.19
2022-08-28T07:54:36.994Z,96236.59
2022-08-28T07:57:09.595Z,96247.56
2022-08-28T07:59:38.379Z,96242.34
2022-08-28T08:02:08.091Z,96245.69
2022-08-28T08:04:37.054Z,96246.59
2022-08-28T08:07:06.110Z,96248.91
2022-08-28T08:09:39.368Z,96251.47
2022-08-28T08:12:10.525Z,96253.41
2022-08-28T08:14:39.300Z,96258.56
2022-08-28T08:17:08.191Z,96253.72
2022-08-28T08:19:37.695Z,96261.69
2022-08-28T08:22:06.260Z,96263.38
2022-08-28T08:24:35.394Z,96261.59
2022-08-28T08:27:04.211Z,96254.97
2022-08-28T08:29:37.920Z,96258.59
2022-08-28T08:32:08.881Z,96252.53
2022-08-28T08:34:39.730Z,96257.22
2022-08-28T08:37:09.084Z,96256.34
2022-08-28T08:39:39.029Z,96245.47
2022-08-28T08:42:11.843Z,96258.06
2022-08-28T08:44:44.529Z,96257.19
2022-08-28T08:47:18.487Z,96254.63
2022-08-28T08:49:53.109Z,96253.97
2022-08-28T08:52:42.835Z,96260.56
2022-08-28T08:55:24.682Z,96266.59
2022-08-28T08:58:02.176Z,96264.97
2022-08-28T09:00:35.571Z,96268.00
2022-08-28T09:03:07.835Z,96268.56
2022-08-28T09:05:46.223Z,96278.84
2022-08-28T09:08:26.283Z,96283.41
2022-08-28T09:11:03.149Z,96279.66
2022-08-28T09:13:43.496Z,96282.63
2022-08-28T09:16:25.206Z,96279.78
2022-08-28T09:18:57.013Z,96294.22
2022-08-28T09:21:29.513Z,96286.41
2022-08-28T09:24:05.917Z,96290.16
2022-08-28T09:26:40.811Z,96287.69
2022-08-28T09:29:17.643Z,96291.47
2022-08-28T09:31:47.466Z,96288.22
2022-08-28T09:34:25.551Z,96286.56
2022-08-28T09:36:54.771Z,96291.31
2022-08-28T09:39:25.931Z,96290.25
2022-08-28T09:42:34.008Z,96286.25
2022-08-28T09:45:09.039Z,96293.53
2022-08-28T09:47:46.846Z,96293.59
2022-08-28T09:50:23.483Z,96289.91
2022-08-28T09:52:54.328Z,96297.81
2022-08-28T09:55:31.655Z,96297.81
2022-08-28T09:58:01.086Z,96296.53
2022-08-28T10:00:35.106Z,96294.06
2022-08-28T10:03:22.803Z,96300.28
2022-08-28T10:06:02.198Z,96297.81
2022-08-28T10:08:48.800Z,96301.28
2022-08-28T10:11:24.413Z,96299.06
2022-08-28T10:14:03.712Z,96300.38
2022-08-28T10:16:41.631Z,96304.97
2022-08-28T10:19:23.091Z,96299.91
2022-08-28T10:22:00.472Z,96299.91
2022-08-28T10:24:52.991Z,96303.41
2022-08-28T10:27:36.554Z,96309.13
2022-08-28T10:30:13.095Z,96308.28
2022-08-28T10:33:02.231Z,96307.47
2022-08-28T10:35:45.050Z,96308.78
2022-08-28T10:38:17.236Z,96305.03
2022-08-28T10:40:56.731Z,96314.66
2022-08-28T10:43:31.863Z,96319.72
2022-08-28T10:46:05.503Z,96318.25
2022-08-28T10:48:41.599Z,96314.69
2022-08-28T10:51:17.732Z,96322.34
2022-08-28T10:53:51.967Z,96317.63
2022-08-28T10:56:25.392Z,96326.91
2022-08-28T10:58:59.759Z,96324.09
2022-08-28T11:01:31.949Z,96332.19
2022-08-28T11:04:04.476Z,96327.53
2022-08-28T11:06:39.393Z,96334.13
2022-08-28T11:09:26.404Z,96342.94
2022-08-28T11:12:01.778Z,96340.78
2022-08-28T11:14:35.376Z,96338.38
2022-08-28T11:17:06.508Z,96343.06
2022-08-28T11:20:10.560Z,96348.03
2022-08-28T11:22:45.908Z,96349.94
2022-08-28T11:25:19.767Z,96349.44
2022-08-28T11:28:18.854Z,96353.47
2022-08-28T11:30:50.146Z,96352.25
2022-08-28T11:33:43.472Z,96349.25
2022-08-28T11:36:13.908Z,96350.66
2022-08-28T11:39:23.323Z,96356.97
2022-08-28T11:42:29.404Z,96356.13
2022-08-28T11:44:57.895Z,96360.72
2022-08-28T11:47:44.779Z,96358.59
2022-08-28T11:50:23.488Z,96364.56
2022-08-28T11:53:20.233Z,96360.34
2022-08-28T11:56:13.486Z,96369.72
2022-08-28T11:58:57.179Z,96362.94
2022-08-28T12:01:32.376Z,96369.00
2022-08-28T12:04:08.105Z,96363.03
2022-08-28T12:07:16.052Z,96364.56
2022-08-28T12:09:46.576Z,96368.19
2022-08-28T12:12:48.282Z,96366.44
2022-08-28T12:15:40.405Z,96371.00
2022-08-28T12:18:17.856Z,96369.13
2022-08-28T12:21:01.699Z,96374.16
2022-08-28T12:23:40.403Z,96378.16
2022-08-28T12:26:17.073Z,96380.03
2022-08-28T12:28:49.531Z,96375.91
2022-08-28T12:31:53.525Z,96378.81
2022-08-28T12:34:32.859Z,96381.78
2022-08-28T12:37:03.216Z,96379.91
2022-08-28T12:39:34.366Z,96380.69
2022-08-28T12:42:03.977Z,96377.66
2022-08-28T12:44:34.371Z,96383.28
2022-08-28T12:47:04.292Z,96383.38
2022-08-28T12:49:35.847Z,96383.75
2022-08-28T12:52:17.193Z,96389.59
2022-08-28T12:54:47.297Z,96390.28
2022-08-28T12:57:17.723Z,96382.81
2022-08-28T12:59:48.196Z,96388.31
2022-08-28T13:02:27.610Z,96379.19
2022-08-28T13:04:59.576Z,96381.88
2022-08-28T13:07:30.800Z,96376.25
2022-08-28T13:10:03.495Z,96384.09
2022-08-28T13:12:54.721Z,96376.16
2022-08-28T13:15:43.639Z,96381.88
2022-08-28T13:18:44.092Z,96379.41
2022-08-28T13:21:32.679Z,96380.22
2022-08-28T13:24:29.474Z,96381.28
2022-08-28T13:27:03.992Z,96375.66
2022-08-28T13:29:33.632Z,96374.13
2022-08-28T13:32:03.542Z,96375.44
2022-08-28T13:34:33.488Z,96366.97
2022-08-28T13:37:04.170Z,96373.63
2022-08-28T13:39:38.521Z,96365.19
2022-08-28T13:42:11.181Z,96362.03
2022-08-28T13:44:47.749Z,96374.75
2022-08-28T13:47:16.864Z,96372.91
2022-08-28T13:49:45.448Z,96377.94
2022-08-28T13:52:14.180Z,96374.69
2022-08-28T13:54:45.512Z,96374.44
2022-08-28T13:57:14.550Z,96374.44
2022-08-28T13:59:43.075Z,96372.00
2022-08-28T14:02:32.776Z,96369.88
2022-08-28T14:05:01.405Z,96379.44
2022-08-28T14:07:30.475Z,96365.38
2022-08-28T14:10:00.491Z,96371.09
2022-08-28T14:12:33.082Z,96374.84
2022-08-28T14:15:04.160Z,96368.97
2022-08-28T14:17:33.997Z,96371.50
2022-08-28T14:20:03.064Z,96372.75
2022-08-28T14:22:31.565Z,96370.97
2022-08-28T14:25:01.422Z,96364.84
2022-08-28T14:27:29.929Z,96363.91
2022-08-28T14:29:58.491Z,96371.28
2022-08-28T14:32:26.911Z,96368.59
2022-08-28T14:34:55.548Z,96362.88
2022-08-28T14:37:24.661Z,96364.00
2022-08-28T14:39:53.133Z,96366.31
2022-08-28T14:42:23.090Z,96359.47
2022-08-28T14:44:51.601Z,96367.66
2022-08-28T14:47:20.480Z,96359.28
2022-08-28T14:49:49.074Z,96361.59
2022-08-28T14:52:19.400Z,96361.50
2022-08-28T14:54:48.051Z,96367.38
2022-08-28T14:57:16.499Z,96368.44
2022-08-28T14:59:46.429Z,96375.88
2022-08-28T15:02:14.815Z,96376.00
2022-08-28T15:04:43.248Z,96367.44
2022-08-28T15:07:12.971Z,96368.25
2022-08-28T15:09:43.577Z,96362.03
2022-08-28T15:12:12.138Z,96373.06
2022-08-28T15:14:41.021Z,96372.81
2022-08-28T15:17:34.304Z,96366.63
2022-08-28T15:20:04.035Z,96372.59
2022-08-28T15:22:32.523Z,96371.50
2022-08-28T15:25:00.984Z,96369.81
2022-08-28T15:27:29.499Z,96376.78
2022-08-28T15:29:57.939Z,96378.91
2022-08-28T15:32:27.998Z,96376.44
2022-08-28T15:34:56.620Z,96378.56
2022-08-28T15:37:25.099Z,96380.38
2022-08-28T15:40:11.429Z,96382.69
2022-08-28T15:42:39.949Z,96366.63
2022-08-28T15:45:08.819Z,96380.97
2022-08-28T15:47:38.812Z,96374.81
2022-08-28T15:50:08.539Z,96374.66
2022-08-28T15:52:40.136Z,96370.25
2022-08-28T15:55:11.245Z,96366.47
2022-08-28T15:57:39.799Z,96376.63
2022-08-28T16:00:10.600Z,96365.84
2022-08-28T16:02:40.601Z,96363.44
2022-08-28T16:05:10.025Z,96369.19
2022-08-28T16:07:38.998Z,96366.41
2022-08-28T16:10:10.267Z,96361.00
2022-08-28T16:12:39.608Z,96366.81
2022-08-28T16:15:09.712Z,96355.59
2022-08-28T16:17:38.870Z,96361.69
2022-08-28T16:20:12.984Z,96361.81
2022-08-28T16:22:41.976Z,96366.78
2022-08-28T16:25:13.205Z,96360.41
2022-08-28T16:27:41.692Z,96356.88
2022-08-28T16:30:15.631Z,96368.44
2022-08-28T16:32:46.725Z,96372.03
2022-08-28T16:35:17.684Z,96359.31
2022-08-28T16:37:46.188Z,96363.00
2022-08-28T16:40:15.324Z,96359.63
2022-08-28T16:42:51.273Z,96362.22
2022-08-28T16:45:21.345Z,96360.91
2022-08-28T16:47:50.463Z,96366.31
2022-08-28T16:50:20.668Z,96364.94
2022-08-28T16:52:49.160Z,96358.63
2022-08-28T16:55:17.699Z,96367.22
2022-08-28T16:57:46.051Z,96360.75
2022-08-28T17:00:15.024Z,96354.31
2022-08-28T17:02:44.222Z,96365.91
2022-08-28T17:05:15.454Z,96367.81
2022-08-28T17:07:45.280Z,96367.22
2022-08-28T17:10:16.999Z,96362.31
2022-08-28T17:12:45.674Z,96369.84
2022-08-28T17:15:14.947Z,96370.09
2022-08-28T17:17:43.786Z,96373.00
2022-08-28T17:20:33.535Z,96371.06
2022-08-28T17:23:03.124Z,96377.69
2022-08-28T17:25:31.923Z,96382.97
2022-08-28T17:28:01.073Z,96380.22
2022-08-28T17:30:29.612Z,96381.25
2022-08-28T17:32:58.240Z,96384.19
2022-08-28T17:35:26.708Z,96385.50
2022-08-28T17:37:55.808Z,96388.44
2022-08-28T17:40:26.177Z,96386.81
2022-08-28T17:42:54.724Z,96397.84
2022-08-28T17:45:23.255Z,96400.53
2022-08-28T17:47:52.670Z,96396.19
2022-08-28T17:50:21.849Z,96401.59
2022-08-28T17:52:50.401Z,96399.16
2022-08-28T17:55:21.064Z,96404.28
2022-08-28T17:57:50.985Z,96395.06
2022-08-28T18:00:19.764Z,96396.69
2022-08-28T18:02:51.746Z,96395.06
2022-08-28T18:05:20.281Z,96400.94
2022-08-28T18:07:49.359Z,96404.63
2022-08-28T18:10:17.877Z,96412.94
2022-08-28T18:12:47.756Z,96416.88
2022-08-28T18:15:17.924Z,96408.22
2022-08-28T18:17:50.567Z,96413.03
2022-08-28T18:20:20.112Z,96411.88
2022-08-28T18:22:48.639Z,96425.00
2022-08-28T18:25:31.404Z,96415.53
2022-08-28T18:27:59.960Z,96424.34
2022-08-28T18:30:30.528Z,96423.50
2022-08-28T18:32:59.148Z,96423.50
2022-08-28T18:35:31.652Z,96430.22
2022-08-28T18:38:01.392Z,96433.13
2022-08-28T18:40:31.068Z,96436.91
2022-08-28T18:42:59.968Z,96440.19
2022-08-28T18:45:31.643Z,96441.47
2022-08-28T18:48:01.566Z,96445.22
2022-08-28T18:50:31.423Z,96458.13
2022-08-28T18:53:01.032Z,96454.59
2022-08-28T18:55:31.142Z,96463.97
2022-08-28T18:58:02.179Z,96465.84
2022-08-28T19:00:32.954Z,96465.50
2022-08-28T19:03:01.636Z,96468.09
2022-08-28T19:05:30.658Z,96470.22
2022-08-28T19:08:01.979Z,96467.19
2022-08-28T19:10:34.877Z,96469.97
2022-08-28T19:13:04.657Z,96467.41
2022-08-28T19:15:36.205Z,96462.97
2022-08-28T19:18:05.486Z,96463.66
2022-08-28T19:20:34.859Z,96471.06
2022-08-28T19:23:03.568Z,96471.94
2022-08-28T19:25:32.263Z,96465.97
2022-08-28T19:28:02.471Z,96466.47
2022-08-28T19:30:33.530Z,96465.63
2022-08-28T19:33:05.205Z,96461.78
2022-08-28T19:35:34.868Z,96463.28
2022-08-28T19:38:03.532Z,96464.22
2022-08-28T19:40:33.592Z,96462.47
2022-08-28T19:43:02.327Z,96472.06
2022-08-28T19:45:34.107Z,96471.84
2022-08-28T19:48:04.503Z,96467.06
2022-08-28T19:50:32.917Z,96466.78
2022-08-28T19:53:01.483Z,96469.03
2022-08-28T19:55:30.595Z,96472.75
2022-08-28T19:57:59.261Z,96481.09
2022-08-28T20:00:29.627Z,96465.41
2022-08-28T20:02:58.248Z,96475.00
2022-08-28T20:05:28.347Z,96478.84
2022-08-28T20:07:56.896Z,96493.81
2022-08-28T20:10:27.730Z,96490.63
2022-08-28T20:12:56.416Z,96487.91
2022-08-28T20:15:25.088Z,96488.94
2022-08-28T20:17:53.606Z,96473.31
2022-08-28T20:20:26.801Z,96478.91
2022-08-28T20:22:59.320Z,96483.00
2022-08-28T20:25:27.831Z,96484.88
2022-08-28T20:28:00.930Z,96483.56
2022-08-28T20:30:30.505Z,96478.03
2022-08-28T20:33:00.920Z,96473.03
2022-08-28T20:35:29.723Z,96483.94
2022-08-28T20:37:59.712Z,96483.47
2022-08-28T20:40:28.391Z,96479.28
2022-08-28T20:42:57.088Z,96485.69
2022-08-28T20:45:25.932Z,96471.44
2022-08-28T20:47:54.371Z,96474.59
2022-08-28T20:50:23.156Z,96474.59
2022-08-28T20:52:51.759Z,96476.19
2022-08-28T20:55:21.596Z,96489.69
2022-08-28T20:57:50.111Z,96495.06
2022-08-28T21:00:18.709Z,96498.09
2022-08-28T21:02:47.242Z,96494.06
2022-08-28T21:05:15.807Z,96494.91
2022-08-28T21:07:44.318Z,96486.41
2022-08-28T21:10:12.720Z,96498.53
2022-08-28T21:12:42.572Z,96491.66
2022-08-28T21:15:13.473Z,96502.91
2022-08-28T21:17:42.635Z,96502.75
2022-08-28T21:20:13.811Z,96505.00
2022-08-28T21:22:42.478Z,96502.91
2022-08-28T21:25:12.158Z,96505.44
2022-08-28T21:27:44.900Z,96507.22
2022-08-28T21:30:17.011Z,96506.81
2022-08-28T21:32:45.812Z,96508.88
2022-08-28T21:35:15.185Z,96512.50
2022-08-28T21:37:43.811Z,96516.16
2022-08-28T21:40:14.863Z,96522.97
2022-08-28T21:42:44.967Z,96517.59
2022-08-28T21:45:13.960Z,96532.22
2022-08-28T21:47:43.306Z,96528.09
2022-08-28T21:50:12.932Z,96531.25
2022-08-28T21:52:41.777Z,96533.47
2022-08-28T21:55:13.516Z,96532.00
2022-08-28T21:57:42.816Z,96526.78
2022-08-28T22:00:17.319Z,96537.59
2022-08-28T22:02:46.098Z,96531.44
2022-08-28T22:05:17.370Z,96528.16
2022-08-28T22:07:46.060Z,96525.69
2022-08-28T22:10:15.299Z,96528.38
2022-08-28T22:12:43.802Z,96526.16
2022-08-28T22:15:13.749Z,96514.38
2022-08-28T22:17:42.243Z,96520.63
2022-08-28T22:20:11.525Z,96518.63
2022-08-28T22:22:57.539Z,96518.44
2022-08-28T22:25:26.094Z,96514.78
2022-08-28T22:27:54.959Z,96516.69
2022-08-28T22:30:25.011Z,96511.97
2022-08-28T22:32:53.906Z,96516.34
2022-08-28T22:35:22.917Z,96516.34
2022-08-28T22:37:51.381Z,96510.31
2022-08-28T22:40:20.230Z,96508.31
2022-08-28T22:42:49.703Z,96520.09
2022-08-28T22:45:18.423Z,96509.13
2022-08-28T22:47:49.661Z,96511.16
2022-08-28T22:50:18.880Z,96507.22
2022-08-28T22:52:48.358Z,96514.06
2022-08-28T22:55:18.166Z,96516.34
2022-08-28T22:57:47.394Z,96513.59
2022-08-28T23:00:19.478Z,96510.88
2022-08-28T23:02:50.144Z,96515.19
2022-08-28T23:05:18.951Z,96517.28
2022-08-28T23:07:48.325Z,96514.59
2022-08-28T23:10:16.896Z,96511.91
2022-08-28T23:12:45.439Z,96518.75
2022-08-28T23:15:17.153Z,96512.59
2022-08-28T23:17:46.115Z,96516.94
2022-08-28T23:20:20.107Z,96507.00
2022-08-28T23:22:48.580Z,96517.75
2022-08-28T23:25:20.432Z,96513.84
2022-08-28T23:27:49.591Z,96510.56
2022-08-28T23:30:19.870Z,96514.09
2022-08-28T23:32:48.279Z,96515.84
2022-08-28T23:35:19.752Z,96510.59
2022-08-28T23:37:52.039Z,96515.75
2022-08-28T23:40:23.517Z,96515.19
2022-08-28T23:42:52.835Z,96515.66
2022-08-28T23:45:21.995Z,96521.06
2022-08-28T23:47:50.948Z,96515.13
2022-08-28T23:50:22.926Z,96508.94
2022-08-28T23:52:51.570Z,96514.94
2022-08-28T23:55:20.970Z,96512.91
2022-08-28T23:57:52.291Z,96509.06
